Main page
METAR-TAF:

METAR-TAF

Airports :

Venice Marco Polo Airport

Venice, Italy

latitude: 45-30N, longitude: 012-20E, elevation: 2 m

Current weather observation

The report was made 26 minutes ago, at 17:20 UTC
Wind 6 kt from the South/Southeast
Temperature 21°C
Humidity 60%
Pressure 1015 hPa
Visibility 10 km or more
no clouds below 1500 m and no cumulonimbus

METAR: LIPZ 141720Z 15006KT CAVOK 21/13 Q1015 NOSIG

Time: 19:46 (17:46 UTC)

Forecast

The report was made 46 minutes ago, at 17:00 UTC
Forecast valid from 14 at 18 UTC to 15 at 24 UTC
Wind 10 kt from the South/Southeast
Visibility 10 km or more
Few clouds at a height of 2000 ft
Becoming
from 14 at 19 UTC to 14 at 21 UTC
Wind 7 kt from the North/Northeast
Becoming
from 15 at 10 UTC to 15 at 12 UTC
Wind 12 kt from the South/Southeast
Becoming
from 15 at 19 UTC to 15 at 21 UTC
Wind 7 kt from the North/Northeast

TAF: LIPZ 141700Z 1418/1524 16010KT 9999 FEW020 BECMG 1419/1421 03007KT BECMG 1510/1512 16012KT BECMG 1519/1521 03007KT

Weather observations and forecasts of more than 4000 airports (METAR and TAF reports).

The available stations are represented by yellow and red dots on the map.

Hover mouse over dot to see the name of the station.

Then click to see weather observations and forecasts.

To change the map : click on the green buttons with a black cross to zoom in, on the green button with a dash to zoom out, or on the green arrows for adjacent maps.


METAR-TAF: